Time;durP1;ratioP1;P1;durP2;ratioP2;P2;SDS_P1;SDS_P2;PMS_P1;PMS_P2;Temp;Humidity;BMP_temperature;BMP_pressure;BME280_temperature;BME280_humidity;BME280_pressure;Samples;Min_cycle;Max_cycle;Signal;HPM_P1;HPM_P2
2021/11/08 00:00:36;;;;;;;47.38;4.95;;;;;;;8.71;81.34;101966.09;5043082;28;20061;-48
2021/11/08 00:03:05;;;;;;;52.13;5.28;;;;;;;8.65;82.45;101964.84;5034354;28;20022;-49
2021/11/08 00:05:31;;;;;;;42.42;4.57;;;;;;;8.61;82.58;101957.19;5051715;28;20380;-50
2021/11/08 00:08:02;;;;;;;39.20;4.75;;;;;;;8.59;82.76;101959.22;5029420;28;20025;-47
2021/11/08 00:10:31;;;;;;;41.75;4.65;;;;;;;8.57;82.67;101962.00;5033868;28;20034;-47
2021/11/08 00:12:58;;;;;;;44.58;5.60;;;;;;;8.54;83.13;101960.47;5050171;28;20031;-48
2021/11/08 00:15:30;;;;;;;35.63;3.87;;;;;;;8.51;83.60;101960.75;5052914;28;20430;-47
2021/11/08 00:18:07;;;;;;;36.15;4.57;;;;;;;8.50;84.75;101959.03;5033961;28;20036;-48
2021/11/08 00:20:49;;;;;;;49.95;5.47;;;;;;;8.46;83.69;101960.31;5033855;28;20025;-48
2021/11/08 00:23:14;;;;;;;39.80;4.38;;;;;;;8.41;82.96;101961.75;5045218;28;20033;-48
2021/11/08 00:25:41;;;;;;;32.85;5.07;;;;;;;8.34;83.17;101956.88;5047242;28;20044;-47
2021/11/08 00:28:12;;;;;;;40.22;5.68;;;;;;;8.33;82.55;101951.69;5037434;28;20056;-49
2021/11/08 00:30:38;;;;;;;45.03;5.05;;;;;;;8.33;82.07;101949.84;5022857;28;20087;-48
2021/11/08 00:33:08;;;;;;;27.33;3.63;;;;;;;8.42;81.00;101948.16;5032143;28;20083;-50
2021/11/08 00:35:34;;;;;;;46.15;4.97;;;;;;;8.49;80.21;101954.66;5037659;28;20068;-47
2021/11/08 00:37:59;;;;;;;41.22;3.40;;;;;;;8.53;80.18;101958.78;5033679;28;20033;-50
2021/11/08 00:40:24;;;;;;;36.78;3.72;;;;;;;8.56;78.52;101953.13;5044102;28;20116;-50
2021/11/08 00:42:50;;;;;;;29.13;2.97;;;;;;;8.61;78.74;101960.75;5051516;28;20071;-50
2021/11/08 00:45:15;;;;;;;39.88;3.13;;;;;;;8.61;78.27;101957.19;5037690;28;20045;-50
2021/11/08 00:47:40;;;;;;;44.83;3.70;;;;;;;8.60;78.61;101969.78;5033140;28;20033;-49
2021/11/08 00:50:08;;;;;;;33.88;3.97;;;;;;;8.59;79.47;101965.41;5049541;28;20029;-49
2021/11/08 00:52:34;;;;;;;32.97;3.47;;;;;;;8.59;79.93;101972.63;5045014;28;20036;-47
2021/11/08 00:55:00;;;;;;;33.28;3.50;;;;;;;8.59;80.87;101972.63;5036192;28;20048;-48
2021/11/08 00:57:30;;;;;;;34.72;3.38;;;;;;;8.56;81.25;101971.06;5037496;28;20033;-49
2021/11/08 00:59:57;;;;;;;24.70;2.88;;;;;;;8.57;81.31;101970.06;5038324;28;20059;-48
2021/11/08 01:02:25;;;;;;;36.85;4.22;;;;;;;8.56;80.52;101977.28;5037249;28;20449;-46
2021/11/08 01:04:52;;;;;;;36.58;3.40;;;;;;;8.57;79.92;101978.97;5033521;28;20392;-49
2021/11/08 01:07:18;;;;;;;30.23;3.83;;;;;;;8.61;79.48;101989.41;5035726;28;20124;-46
2021/11/08 01:09:45;;;;;;;39.65;5.15;;;;;;;8.59;79.62;101978.00;5040403;28;20107;-47
2021/11/08 01:12:11;;;;;;;22.40;3.35;;;;;;;8.46;80.59;101976.41;5036349;28;20032;-47
2021/11/08 01:14:36;;;;;;;37.03;3.72;;;;;;;8.38;81.06;101981.59;5032312;28;20056;-45
2021/11/08 01:17:02;;;;;;;28.55;3.40;;;;;;;8.34;81.52;101978.34;5047025;28;20039;-45
2021/11/08 01:19:28;;;;;;;34.03;3.25;;;;;;;8.31;81.78;101983.16;5050397;28;20116;-48
2021/11/08 01:22:04;;;;;;;32.58;3.20;;;;;;;8.32;82.22;101984.81;5035994;28;20090;-48
2021/11/08 01:24:30;;;;;;;30.25;3.55;;;;;;;8.34;82.49;101974.81;5029676;28;20449;-47
2021/11/08 01:26:55;;;;;;;34.30;3.15;;;;;;;8.45;80.58;101981.91;5043482;28;20037;-48
2021/11/08 01:29:21;;;;;;;35.83;3.75;;;;;;;8.51;80.00;101973.31;5034921;28;20051;-47
2021/11/08 01:31:46;;;;;;;37.28;4.15;;;;;;;8.60;79.06;101977.00;5032497;28;20034;-46
2021/11/08 01:34:12;;;;;;;27.77;3.35;;;;;;;8.67;78.23;101972.75;5045449;28;20021;-48
2021/11/08 01:36:39;;;;;;;35.90;3.53;;;;;;;8.67;77.96;101972.75;5040331;28;20071;-45
2021/11/08 01:39:15;;;;;;;29.10;3.30;;;;;;;8.68;78.38;101974.44;5051193;28;20100;-46
2021/11/08 01:41:41;;;;;;;37.03;4.40;;;;;;;8.70;77.39;101969.78;5052325;28;20279;-47
2021/11/08 01:44:06;;;;;;;30.95;3.20;;;;;;;8.72;76.14;101967.81;5052446;28;20025;-47
2021/11/08 01:46:31;;;;;;;34.33;2.60;;;;;;;8.71;75.62;101976.84;5037795;28;20040;-47
2021/11/08 01:48:57;;;;;;;24.20;2.60;;;;;;;8.68;75.55;101974.44;5052134;28;20104;-49
2021/11/08 01:51:22;;;;;;;24.90;3.47;;;;;;;8.63;76.10;101979.38;5049522;28;20492;-44
2021/11/08 01:53:48;;;;;;;29.38;2.78;;;;;;;8.55;76.48;101986.28;5032423;28;20171;-46
2021/11/08 01:56:14;;;;;;;26.38;2.88;;;;;;;8.49;76.10;101980.66;5041092;28;20026;-49
2021/11/08 01:58:40;;;;;;;19.55;2.67;;;;;;;8.41;76.66;101978.69;5049225;28;20041;-48
2021/11/08 02:01:06;;;;;;;35.88;3.10;;;;;;;8.35;77.19;101981.91;5036378;28;20496;-48
2021/11/08 02:03:32;;;;;;;22.30;2.70;;;;;;;8.28;77.97;101983.44;5032614;28;20105;-45
2021/11/08 02:05:57;;;;;;;28.20;2.78;;;;;;;8.22;77.75;101979.47;5046189;28;20416;-50
2021/11/08 02:08:23;;;;;;;23.83;3.05;;;;;;;8.19;78.52;101978.88;5035579;28;20021;-47
2021/11/08 02:10:50;;;;;;;33.50;3.55;;;;;;;8.13;78.81;101983.81;5046447;28;20411;-48
2021/11/08 02:13:16;;;;;;;25.75;2.95;;;;;;;8.09;79.72;101985.09;5042566;28;20799;-46
2021/11/08 02:15:41;;;;;;;29.73;3.80;;;;;;;8.02;80.45;101983.09;5041446;28;20116;-48
2021/11/08 02:18:09;;;;;;;21.92;2.53;;;;;;;7.96;81.06;101989.84;5037010;28;20053;-47
2021/11/08 02:20:36;;;;;;;32.42;3.15;;;;;;;7.90;81.45;101995.78;5037992;28;20186;-49
2021/11/08 02:23:05;;;;;;;29.30;3.13;;;;;;;7.82;81.76;101999.13;5039802;28;20084;-46
2021/11/08 02:25:34;;;;;;;48.38;3.55;;;;;;;7.76;81.64;101993.44;5045048;28;20032;-48
2021/11/08 02:27:59;;;;;;;25.98;2.33;;;;;;;7.76;82.23;101982.72;5045315;28;20049;-47
2021/11/08 02:30:28;;;;;;;23.73;2.50;;;;;;;7.70;82.38;101984.97;5044301;28;20388;-46
2021/11/08 02:32:55;;;;;;;18.92;3.25;;;;;;;7.68;82.57;101992.28;5053878;28;20028;-47
2021/11/08 02:35:21;;;;;;;34.17;3.35;;;;;;;7.66;83.49;101988.03;5036423;28;20047;-46
2021/11/08 02:37:47;;;;;;;25.85;2.85;;;;;;;7.64;83.53;101982.84;5046581;28;20460;-47
2021/11/08 02:40:20;;;;;;;32.50;2.85;;;;;;;7.65;83.78;101997.91;5049197;28;20456;-47
2021/11/08 02:42:48;;;;;;;33.13;3.53;;;;;;;7.66;83.68;101991.59;5055530;28;20388;-45
2021/11/08 02:45:15;;;;;;;32.10;2.88;;;;;;;7.68;84.06;101986.06;5049800;28;20032;-46
2021/11/08 02:47:46;;;;;;;20.23;2.80;;;;;;;7.67;84.14;101982.56;5037210;28;20033;-45
2021/11/08 02:50:14;;;;;;;37.38;3.67;;;;;;;7.65;84.57;101987.19;5042322;28;20095;-45
2021/11/08 02:52:39;;;;;;;;;;;;;;;7.62;83.47;101987.47;5038012;28;20108;-44
2021/11/08 02:55:05;;;;;;;19.23;2.70;;;;;;;7.62;82.86;101987.47;5041246;28;20003;-46
2021/11/08 02:57:31;;;;;;;21.42;2.25;;;;;;;7.66;82.31;101978.19;5041427;28;20435;-46
2021/11/08 03:00:01;;;;;;;19.00;3.17;;;;;;;7.72;81.97;101981.31;5038119;28;20036;-46
2021/11/08 03:02:26;;;;;;;25.20;2.63;;;;;;;7.75;80.78;101983.72;5051945;28;20044;-46
2021/11/08 03:04:53;;;;;;;21.48;2.47;;;;;;;7.81;79.92;101985.84;5041516;28;20377;-46
2021/11/08 03:07:20;;;;;;;30.80;4.20;;;;;;;7.85;79.28;101979.25;5034158;28;20021;-47
2021/11/08 03:09:54;;;;;;;27.02;2.70;;;;;;;7.91;78.68;101981.38;5040272;28;20679;-47
2021/11/08 03:12:24;;;;;;;21.77;3.28;;;;;;;7.98;78.39;101979.84;5053317;28;20075;-46
2021/11/08 03:17:29;;;;;;;28.80;4.07;;;;;;;8.14;77.62;101980.16;5035196;28;20043;-47
2021/11/08 03:19:54;;;;;;;28.98;2.53;;;;;;;8.20;76.63;101981.44;5050825;28;20033;-48
2021/11/08 03:22:25;;;;;;;29.13;2.90;;;;;;;8.22;77.07;101979.47;5034878;28;20512;-47
2021/11/08 03:24:57;;;;;;;36.25;4.65;;;;;;;8.24;76.81;101982.00;5042074;28;20040;-48
2021/11/08 03:29:55;;;;;;;24.42;2.75;;;;;;;8.20;76.40;101980.59;5049031;28;20040;-47
2021/11/08 03:32:23;;;;;;;26.88;3.05;;;;;;;8.20;76.56;101986.81;5053291;28;20029;-46
2021/11/08 03:34:56;;;;;;;25.45;2.88;;;;;;;8.17;76.40;101986.25;5047548;28;20503;-45
2021/11/08 03:37:22;;;;;;;21.05;2.80;;;;;;;8.24;76.26;101979.31;5034974;28;20025;-47
2021/11/08 03:39:49;;;;;;;20.60;2.90;;;;;;;8.20;76.09;101991.31;5035686;28;20032;-47
2021/11/08 03:42:15;;;;;;;28.45;3.17;;;;;;;8.13;76.85;101991.84;5034425;28;20037;-47
2021/11/08 03:44:41;;;;;;;24.23;2.55;;;;;;;8.06;77.73;101990.72;5036518;28;20064;-47
2021/11/08 03:47:06;;;;;;;17.67;2.63;;;;;;;8.00;77.53;102007.34;5045075;28;20052;-50
2021/11/08 03:49:32;;;;;;;26.30;3.00;;;;;;;7.95;78.13;101998.00;5035471;28;20099;-46
2021/11/08 03:52:00;;;;;;;25.55;2.72;;;;;;;7.91;78.50;102003.66;5045724;28;20160;-48
2021/11/08 03:54:25;;;;;;;22.67;3.55;;;;;;;7.88;80.29;102003.09;5045609;28;20028;-46
2021/11/08 03:56:50;;;;;;;24.15;2.40;;;;;;;7.84;80.67;102010.53;5038591;28;20033;-49
2021/11/08 03:59:16;;;;;;;33.60;2.88;;;;;;;7.81;80.85;102007.28;5051902;28;20034;-48
2021/11/08 04:01:41;;;;;;;24.42;2.95;;;;;;;7.77;81.23;102014.75;5041866;28;20029;-48
2021/11/08 04:04:07;;;;;;;32.80;4.07;;;;;;;7.75;81.61;102014.03;5041377;28;20025;-48
2021/11/08 04:06:37;;;;;;;20.55;2.50;;;;;;;7.76;82.16;102020.25;5015510;28;20396;-48
2021/11/08 04:09:06;;;;;;;44.65;4.32;;;;;;;7.75;82.16;102019.41;5039055;28;20071;-47
2021/11/08 04:11:32;;;;;;;22.40;4.05;;;;;;;7.74;82.85;102022.19;5032686;28;20112;-49
2021/11/08 04:13:58;;;;;;;24.80;2.67;;;;;;;7.74;82.75;102022.19;5035776;28;20436;-46
2021/11/08 04:16:26;;;;;;;25.40;3.83;;;;;;;7.70;83.41;102027.00;5044602;28;20022;-47
2021/11/08 04:18:53;;;;;;;27.27;3.42;;;;;;;7.66;83.57;102029.09;5050875;28;20484;-47
2021/11/08 04:21:20;;;;;;;32.13;3.00;;;;;;;7.62;83.98;102016.94;5052333;28;20029;-47
2021/11/08 04:23:45;;;;;;;24.80;3.10;;;;;;;7.56;83.76;102030.03;5024733;28;20025;-46
2021/11/08 04:26:15;;;;;;;34.50;3.58;;;;;;;7.47;84.04;102023.63;5049865;28;20044;-46
2021/11/08 04:28:41;;;;;;;24.42;3.15;;;;;;;7.41;84.10;102021.50;5039064;28;20120;-47
2021/11/08 04:31:07;;;;;;;28.23;3.10;;;;;;;7.33;83.51;102021.31;5037744;28;20107;-47
2021/11/08 04:33:48;;;;;;;21.90;3.08;;;;;;;7.25;84.91;102033.50;5052181;28;20674;-47
2021/11/08 05:24:17;;;;;;;32.10;3.80;;;;;;;7.94;86.09;102052.63;5052571;28;20040;-47
2021/11/08 05:31:55;;;;;;;31.95;4.47;;;;;;;7.99;87.15;102059.28;5049101;28;20483;-48
2021/11/08 05:34:21;;;;;;;41.00;4.28;;;;;;;8.00;86.94;102063.63;5032372;28;20067;-48
2021/11/08 05:36:47;;;;;;;27.20;3.63;;;;;;;8.01;87.27;102068.03;5032107;28;20033;-50
2021/11/08 05:39:13;;;;;;;28.05;3.67;;;;;;;8.05;86.79;102071.28;5041681;28;20036;-49
2021/11/08 05:41:40;;;;;;;34.45;4.00;;;;;;;8.03;87.15;102068.75;5033102;28;20036;-47
2021/11/08 05:44:06;;;;;;;24.95;4.10;;;;;;;7.99;87.63;102066.47;5034897;28;20041;-48
2021/11/08 05:46:33;;;;;;;25.13;3.17;;;;;;;7.92;88.01;102076.88;5035979;28;20025;-49
2021/11/08 05:48:58;;;;;;;34.95;4.72;;;;;;;7.85;88.45;102076.56;5036560;28;20041;-49
2021/11/08 05:51:24;;;;;;;32.05;3.92;;;;;;;7.81;88.82;102071.63;5036422;28;20025;-50
2021/11/08 05:53:50;;;;;;;36.22;3.55;;;;;;;7.76;88.82;102068.47;5035042;28;20021;-49
2021/11/08 05:59:15;;;;;;;38.33;4.82;;;;;;;7.65;89.38;102069.41;5037660;28;20053;-48
2021/11/08 06:50:44;;;;;;;41.50;5.18;;;;;;;7.45;92.38;102096.09;5032786;28;20052;-47
2021/11/08 06:53:17;;;;;;;40.28;5.90;;;;;;;7.46;92.35;102094.25;5033275;28;20465;-47
2021/11/08 06:55:42;;;;;;;45.67;4.85;;;;;;;7.51;91.90;102104.59;5030265;28;20436;-45
2021/11/08 06:58:16;;;;;;;41.72;5.93;;;;;;;7.52;92.12;102104.44;5030722;28;20025;-47
2021/11/08 07:00:41;;;;;;;36.78;4.57;;;;;;;7.57;91.72;102101.38;5033330;28;20116;-47
2021/11/08 07:03:06;;;;;;;41.88;5.63;;;;;;;7.59;91.61;102104.78;5033755;28;20134;-48
2021/11/08 07:05:32;;;;;;;42.10;5.55;;;;;;;7.64;91.17;102107.91;5031754;28;20029;-48
2021/11/08 07:07:57;;;;;;;36.05;5.70;;;;;;;7.69;90.63;102106.53;5033772;28;20041;-50
2021/11/08 07:10:22;;;;;;;30.40;4.90;;;;;;;7.74;90.43;102113.31;5034148;28;20029;-48
2021/11/08 07:12:51;;;;;;;30.08;4.50;;;;;;;7.79;90.60;102116.44;5032798;28;20032;-47
2021/11/08 07:15:19;;;;;;;42.13;5.65;;;;;;;7.81;90.40;102117.16;5032689;28;20544;-47
2021/11/08 07:17:45;;;;;;;29.45;4.82;;;;;;;7.90;89.72;102116.38;5033576;28;20029;-48
2021/11/08 07:20:11;;;;;;;45.03;6.00;;;;;;;7.95;89.37;102127.53;5035160;28;20042;-48
2021/11/08 07:22:36;;;;;;;37.08;4.72;;;;;;;8.02;88.77;102128.72;5032575;28;20039;-47
2021/11/08 07:25:03;;;;;;;35.05;5.35;;;;;;;8.11;88.26;102135.97;5034296;28;20028;-46
2021/11/08 07:27:28;;;;;;;25.95;4.07;;;;;;;8.20;88.42;102130.78;5031752;28;20050;-47
2021/11/08 07:29:53;;;;;;;32.45;5.07;;;;;;;8.24;87.86;102141.09;5033442;28;20472;-50
2021/11/08 07:32:19;;;;;;;39.10;5.70;;;;;;;8.33;87.64;102142.13;5033148;28;20105;-47
2021/11/08 07:34:44;;;;;;;31.77;4.93;;;;;;;8.46;87.00;102137.41;5033108;28;20032;-48
2021/11/08 07:37:10;;;;;;;28.42;5.25;;;;;;;8.57;86.73;102144.50;5032906;28;20109;-44
2021/11/08 07:39:35;;;;;;;36.88;4.95;;;;;;;8.64;87.28;102155.53;5033520;28;20074;-48
2021/11/08 07:42:00;;;;;;;45.65;6.43;;;;;;;8.69;87.42;102166.69;5032985;28;20433;-46
2021/11/08 07:44:26;;;;;;;39.55;4.78;;;;;;;8.78;86.91;102155.13;5033014;28;20036;-47
2021/11/08 07:46:51;;;;;;;51.38;5.88;;;;;;;8.88;86.89;102164.06;5032961;28;20025;-50
2021/11/08 07:49:17;;;;;;;36.08;4.72;;;;;;;8.94;87.05;102163.50;5032693;28;20030;-48
2021/11/08 07:51:42;;;;;;;40.30;6.28;;;;;;;8.98;87.13;102167.63;5032900;28;20117;-46
2021/11/08 07:54:08;;;;;;;28.70;4.45;;;;;;;8.96;86.52;102166.91;5032771;28;20028;-48
2021/11/08 07:56:33;;;;;;;36.83;4.20;;;;;;;9.04;86.48;102173.41;5032469;28;20063;-49
2021/11/08 07:58:59;;;;;;;40.20;5.75;;;;;;;9.10;86.44;102178.22;5032931;28;20036;-46
2021/11/08 08:01:25;;;;;;;35.63;5.20;;;;;;;9.13;86.35;102177.94;5032529;28;20380;-49
2021/11/08 08:03:50;;;;;;;38.78;4.82;;;;;;;9.18;86.55;102176.53;5031595;28;20116;-49
2021/11/08 08:06:16;;;;;;;33.20;4.55;;;;;;;9.23;86.38;102174.28;5031492;28;20029;-47
2021/11/08 08:08:45;;;;;;;38.15;4.85;;;;;;;9.15;83.75;102187.56;5032356;28;20115;-48
2021/11/08 08:11:11;;;;;;;33.67;5.43;;;;;;;9.16;83.58;102191.09;5033570;28;20052;-47
2021/11/08 08:13:38;;;;;;;46.72;5.60;;;;;;;9.18;82.69;102194.50;5036083;28;20480;-46
2021/11/08 08:16:07;;;;;;;32.30;5.53;;;;;;;9.21;82.49;102188.81;5035210;28;20033;-47
2021/11/08 08:18:37;;;;;;;29.98;4.18;;;;;;;9.23;83.24;102185.00;5027945;28;20156;-48
2021/11/08 08:21:03;;;;;;;38.70;5.18;;;;;;;9.27;83.77;102199.03;5034691;28;20029;-47
2021/11/08 08:23:28;;;;;;;27.17;5.07;;;;;;;9.31;82.95;102196.91;5033256;28;20040;-47
2021/11/08 08:25:54;;;;;;;44.40;5.85;;;;;;;9.30;82.03;102206.81;5034426;28;20026;-48
2021/11/08 08:28:19;;;;;;;38.70;4.68;;;;;;;9.35;82.44;102207.25;5038429;28;20061;-49
2021/11/08 08:30:45;;;;;;;33.10;5.30;;;;;;;9.38;82.19;102206.09;5032677;28;20526;-46
2021/11/08 08:33:10;;;;;;;37.80;5.15;;;;;;;9.43;82.08;102218.13;5032400;28;20391;-45
2021/11/08 08:35:42;;;;;;;46.47;6.10;;;;;;;9.46;82.69;102211.63;5032365;28;20025;-47
2021/11/08 08:38:09;;;;;;;44.63;5.82;;;;;;;9.53;82.71;102211.88;5034992;28;20550;-48
2021/11/08 08:40:35;;;;;;;32.37;4.83;;;;;;;9.57;82.80;102211.47;5037368;28;20036;-47
2021/11/08 08:43:02;;;;;;;29.42;5.18;;;;;;;9.61;81.31;102214.72;5033177;28;20029;-47
2021/11/08 08:45:27;;;;;;;32.58;5.97;;;;;;;9.72;81.10;102217.28;5035101;28;20111;-47
2021/11/08 08:47:52;;;;;;;34.35;4.47;;;;;;;9.83;81.24;102214.44;5037785;28;20025;-48
2021/11/08 08:50:18;;;;;;;33.15;5.72;;;;;;;9.97;79.71;102210.44;5033687;28;20026;-47
2021/11/08 08:52:43;;;;;;;25.67;4.35;;;;;;;10.20;79.61;102221.72;5039160;28;20028;-48
2021/11/08 08:55:09;;;;;;;34.25;5.28;;;;;;;10.71;78.45;102220.41;5046099;28;20075;-50
2021/11/08 08:57:34;;;;;;;19.80;3.85;;;;;;;11.29;75.80;102213.00;5042112;28;20036;-48
2021/11/08 09:00:00;;;;;;;29.42;4.38;;;;;;;11.59;72.21;102217.16;5050746;28;20199;-47
2021/11/08 09:02:26;;;;;;;37.03;5.25;;;;;;;11.61;70.10;102220.53;5044668;28;20494;-48
2021/11/08 09:04:51;;;;;;;35.20;4.07;;;;;;;11.45;68.93;102223.09;5038343;28;20042;-46
2021/11/08 09:07:16;;;;;;;22.70;3.50;;;;;;;11.33;69.09;102214.41;5050845;28;20025;-49
2021/11/08 09:09:42;;;;;;;33.22;4.30;;;;;;;11.25;69.30;102211.63;5045538;28;20033;-45
2021/11/08 09:12:08;;;;;;;32.10;4.55;;;;;;;11.18;69.12;102225.69;5045377;28;20036;-47
2021/11/08 09:14:34;;;;;;;28.25;3.65;;;;;;;11.08;68.56;102224.91;5038926;28;20441;-50
2021/11/08 09:17:03;;;;;;;36.00;4.25;;;;;;;11.00;69.80;102235.59;5038707;28;20079;-48
2021/11/08 09:19:28;;;;;;;33.88;4.00;;;;;;;10.98;70.49;102229.53;5043360;28;20138;-48
2021/11/08 09:21:54;;;;;;;37.35;3.63;;;;;;;10.96;70.78;102234.22;5035367;28;20498;-48
2021/11/08 09:24:22;;;;;;;22.77;2.92;;;;;;;10.95;71.35;102237.88;5039213;28;20508;-48
2021/11/08 09:26:48;;;;;;;35.35;3.92;;;;;;;10.95;71.30;102238.75;5039840;28;20068;-47
2021/11/08 09:29:16;;;;;;;29.38;3.58;;;;;;;10.97;71.32;102241.28;5037927;28;20413;-47
2021/11/08 09:31:42;;;;;;;29.13;3.63;;;;;;;11.01;70.23;102250.75;5043212;28;20061;-47
2021/11/08 09:34:10;;;;;;;34.45;3.80;;;;;;;11.05;70.36;102248.59;5032309;28;20079;-48
2021/11/08 09:36:37;;;;;;;29.55;3.55;;;;;;;10.99;71.12;102250.91;5032894;28;20112;-49
2021/11/08 09:39:19;;;;;;;23.47;3.43;;;;;;;10.96;70.57;102245.81;5031299;28;20117;-47
2021/11/08 09:41:45;;;;;;;32.25;3.67;;;;;;;10.95;70.58;102251.34;5038283;28;20033;-49
2021/11/08 09:44:10;;;;;;;31.13;4.88;;;;;;;10.93;72.46;102245.28;5045833;28;20037;-47
2021/11/08 09:46:36;;;;;;;38.92;3.53;;;;;;;10.91;71.06;102247.28;5044028;28;20369;-47
2021/11/08 09:49:04;;;;;;;19.90;3.33;;;;;;;10.92;73.10;102238.19;5036361;28;20153;-45
2021/11/08 09:51:30;;;;;;;45.42;5.72;;;;;;;10.91;72.85;102236.50;5033033;28;20029;-48
2021/11/08 09:53:56;;;;;;;35.28;4.05;;;;;;;10.86;71.78;102250.41;5046370;28;20407;-48
2021/11/08 09:56:22;;;;;;;35.25;4.30;;;;;;;10.92;72.71;102243.56;5032300;28;20550;-47
2021/11/08 09:58:47;;;;;;;31.98;4.13;;;;;;;10.93;71.67;102239.91;5047320;28;20108;-48
2021/11/08 10:01:14;;;;;;;28.98;3.67;;;;;;;10.97;71.14;102239.41;5051714;28;20025;-48
2021/11/08 10:03:41;;;;;;;34.78;3.70;;;;;;;11.05;71.09;102249.44;5050094;28;20116;-49
2021/11/08 10:06:07;;;;;;;32.67;3.75;;;;;;;11.09;70.07;102255.41;5040536;28;20431;-48
2021/11/08 10:08:35;;;;;;;33.63;3.72;;;;;;;11.13;71.69;102254.94;5050317;28;20039;-48
2021/11/08 10:11:05;;;;;;;26.67;4.07;;;;;;;11.20;71.43;102260.56;5044563;28;20095;-48
2021/11/08 10:13:31;;;;;;;24.95;4.18;;;;;;;11.19;71.59;102248.13;5034106;28;20525;-48
2021/11/08 10:16:00;;;;;;;32.85;4.47;;;;;;;11.24;70.17;102251.16;5043804;28;20056;-48
2021/11/08 10:18:26;;;;;;;41.22;4.45;;;;;;;11.24;70.89;102247.63;5050102;28;20083;-49
2021/11/08 10:21:02;;;;;;;35.78;4.38;;;;;;;11.28;70.14;102257.13;5052176;28;20029;-47
2021/11/08 10:23:27;;;;;;;25.77;4.13;;;;;;;11.23;69.89;102248.66;5043656;28;20041;-48
2021/11/08 10:25:53;;;;;;;26.63;4.07;;;;;;;11.25;69.15;102252.03;5035039;28;20111;-47
2021/11/08 10:28:24;;;;;;;26.10;4.38;;;;;;;11.21;69.27;102260.41;5037825;28;20164;-48
2021/11/08 10:30:59;;;;;;;31.27;3.85;;;;;;;11.20;70.41;102256.03;5044131;28;20029;-48
2021/11/08 10:33:30;;;;;;;32.28;4.22;;;;;;;11.15;69.52;102263.72;5035744;28;20103;-49
2021/11/08 10:36:00;;;;;;;23.58;3.80;;;;;;;11.07;68.71;102260.09;5038025;28;20036;-47
2021/11/08 10:38:32;;;;;;;36.97;4.20;;;;;;;11.08;68.22;102251.84;5049654;28;20021;-47
2021/11/08 10:41:07;;;;;;;28.10;3.60;;;;;;;11.08;68.08;102254.53;5035200;28;20388;-49
2021/11/08 10:43:40;;;;;;;26.33;3.05;;;;;;;11.16;66.86;102241.19;5031745;28;20045;-45
2021/11/08 10:46:14;;;;;;;43.63;5.47;;;;;;;11.21;67.64;102254.19;5033378;28;20103;-47
2021/11/08 10:48:43;;;;;;;27.00;4.03;;;;;;;11.18;68.31;102255.31;5034607;28;20090;-47
2021/11/08 10:51:10;;;;;;;31.40;4.75;;;;;;;11.16;68.52;102246.56;5033255;28;20372;-48
2021/11/08 10:53:47;;;;;;;41.65;3.80;;;;;;;11.17;68.72;102250.94;5034636;28;20033;-48
2021/11/08 10:56:14;;;;;;;31.30;4.53;;;;;;;11.16;67.92;102251.97;5034661;28;20021;-47
2021/11/08 10:58:47;;;;;;;43.60;4.82;;;;;;;11.21;69.01;102249.63;5034178;28;20432;-48
2021/11/08 11:01:36;;;;;;;42.40;4.38;;;;;;;11.17;68.04;102247.41;5034182;28;20025;-48
2021/11/08 11:04:04;;;;;;;33.08;3.47;;;;;;;11.26;68.95;102241.09;5035102;28;20048;-47
2021/11/08 11:06:44;;;;;;;36.40;5.07;;;;;;;11.25;68.90;102249.34;5037797;28;20028;-48
2021/11/08 11:09:13;;;;;;;30.52;5.35;;;;;;;11.25;68.52;102249.34;5024080;28;20044;-48
2021/11/08 11:11:38;;;;;;;26.90;4.13;;;;;;;11.28;67.60;102243.66;5034882;28;20171;-50
2021/11/08 11:14:04;;;;;;;36.95;4.43;;;;;;;11.34;67.31;102254.66;5033730;28;20108;-47
2021/11/08 11:16:36;;;;;;;32.33;3.72;;;;;;;11.33;67.36;102260.22;5037368;28;20032;-49
2021/11/08 11:19:09;;;;;;;32.78;4.30;;;;;;;11.35;67.18;102256.38;5037095;28;20025;-48
2021/11/08 11:21:36;;;;;;;31.70;4.18;;;;;;;11.32;68.00;102258.50;5034939;28;20071;-48
2021/11/08 11:24:05;;;;;;;28.30;4.35;;;;;;;11.32;67.82;102250.41;5032051;28;20045;-47
2021/11/08 11:26:36;;;;;;;37.63;4.25;;;;;;;11.31;67.25;102254.13;5034169;28;20042;-48
2021/11/08 11:29:03;;;;;;;28.58;5.63;;;;;;;11.33;67.43;102249.44;5034090;28;20060;-47
2021/11/08 11:31:32;;;;;;;36.80;3.65;;;;;;;11.33;67.35;102252.13;5033870;28;20033;-48
2021/11/08 11:34:09;;;;;;;38.75;5.22;;;;;;;11.38;67.31;102260.59;5033448;28;20033;-49
2021/11/08 11:36:36;;;;;;;43.50;5.03;;;;;;;11.44;67.83;102265.38;5031646;28;20034;-48
2021/11/08 11:39:06;;;;;;;23.83;4.05;;;;;;;11.48;68.51;102266.78;5039766;28;20033;-48
2021/11/08 11:41:35;;;;;;;38.88;4.65;;;;;;;11.52;68.70;102260.06;5035056;28;20029;-47
2021/11/08 11:44:14;;;;;;;32.40;4.60;;;;;;;11.51;68.76;102266.47;5034223;28;20104;-48
2021/11/08 11:46:44;;;;;;;37.55;5.00;;;;;;;11.54;68.63;102258.06;5039353;28;20032;-48
2021/11/08 11:49:10;;;;;;;28.98;3.78;;;;;;;11.56;69.35;102266.84;5054013;28;20045;-48
2021/11/08 11:51:39;;;;;;;33.55;4.30;;;;;;;11.62;67.39;102262.69;5031312;28;20029;-48
2021/11/08 11:54:06;;;;;;;32.97;3.47;;;;;;;11.60;67.84;102253.91;5035956;28;20025;-47
2021/11/08 11:56:34;;;;;;;32.92;3.70;;;;;;;11.59;68.93;102253.06;5033679;28;20056;-50
2021/11/08 11:59:00;;;;;;;34.55;5.43;;;;;;;11.52;67.86;102251.13;5033348;28;20120;-49
2021/11/08 12:01:27;;;;;;;44.53;5.43;;;;;;;11.45;67.67;102240.09;5033856;28;20045;-46
2021/11/08 12:03:53;;;;;;;23.83;4.10;;;;;;;11.48;68.32;102239.81;5031917;28;20029;-47
2021/11/08 12:06:41;;;;;;;26.40;3.88;;;;;;;11.53;67.36;102242.91;5032353;28;20029;-46
2021/11/08 12:09:09;;;;;;;43.40;4.53;;;;;;;11.57;67.54;102248.81;5032482;28;20043;-46
2021/11/08 12:11:41;;;;;;;28.88;4.40;;;;;;;11.54;67.80;102244.59;5032744;28;20022;-46
2021/11/08 12:14:25;;;;;;;27.98;3.58;;;;;;;11.55;66.75;102248.13;5035379;28;20025;-45
2021/11/08 12:17:04;;;;;;;32.33;4.28;;;;;;;11.55;66.98;102245.44;5053429;28;20091;-47
2021/11/08 12:19:36;;;;;;;26.70;3.88;;;;;;;11.60;67.00;102243.97;5053382;28;20025;-48
2021/11/08 12:22:23;;;;;;;32.40;3.88;;;;;;;11.59;67.90;102236.03;5053725;28;20025;-47
2021/11/08 12:25:07;;;;;;;26.52;3.92;;;;;;;11.63;67.58;102234.72;5053814;28;20041;-47
2021/11/08 12:27:44;;;;;;;30.63;3.55;;;;;;;11.64;66.95;102241.81;5052830;28;20519;-46
2021/11/08 12:30:28;;;;;;;33.35;5.88;;;;;;;11.76;65.98;102237.03;5035246;28;20033;-47
2021/11/08 12:32:59;;;;;;;41.60;4.60;;;;;;;11.71;67.13;102236.63;5032956;28;20021;-48
2021/11/08 12:35:35;;;;;;;43.08;4.18;;;;;;;11.69;67.05;102236.81;5033225;28;20022;-48
2021/11/08 12:38:13;;;;;;;38.38;5.00;;;;;;;11.64;68.13;102234.56;5033406;28;20025;-47
2021/11/08 12:40:41;;;;;;;29.65;4.15;;;;;;;11.65;66.75;102230.88;5033053;28;20025;-47
2021/11/08 12:43:06;;;;;;;32.38;4.25;;;;;;;11.63;67.61;102227.47;5031455;28;20053;-48
2021/11/08 12:45:42;;;;;;;45.40;5.38;;;;;;;11.62;67.48;102230.34;5032962;28;20053;-48
2021/11/08 12:48:13;;;;;;;33.47;4.50;;;;;;;11.62;68.68;102231.19;5032903;28;20544;-49
2021/11/08 12:50:45;;;;;;;29.70;4.00;;;;;;;11.59;67.96;102227.97;5031405;28;20053;-48
2021/11/08 12:53:26;;;;;;;33.47;4.65;;;;;;;11.61;69.40;102223.22;5032396;28;20036;-47
2021/11/08 12:55:53;;;;;;;41.45;4.55;;;;;;;11.62;69.29;102233.88;5031408;28;20437;-47
2021/11/08 12:58:19;;;;;;;41.80;5.65;;;;;;;11.64;68.48;102222.94;5032605;28;20112;-47
2021/11/08 13:00:51;;;;;;;33.80;3.88;;;;;;;11.70;67.90;102226.88;5032068;28;20100;-48
2021/11/08 13:03:30;;;;;;;26.40;3.53;;;;;;;11.72;66.71;102224.88;5032639;28;20025;-47
2021/11/08 13:05:58;;;;;;;33.95;4.47;;;;;;;11.76;66.60;102227.06;5032514;28;20036;-47
2021/11/08 13:08:24;;;;;;;;;;;;;;;11.70;67.92;102222.31;5032889;28;20481;-50
2021/11/08 13:11:15;;;;;;;32.45;4.07;;;;;;;11.68;69.21;102220.78;5032686;28;19972;-48
2021/11/08 13:13:42;;;;;;;30.70;3.90;;;;;;;11.69;67.32;102230.56;5042648;28;20017;-47
2021/11/08 13:16:13;;;;;;;39.78;4.43;;;;;;;11.67;68.16;102233.41;5052479;28;20445;-49